Time;durP1;ratioP1;P1;durP2;ratioP2;P2;SDS_P1;SDS_P2;PMS_P1;PMS_P2;Temp;Humidity;BMP_temperature;BMP_pressure;BME280_temperature;BME280_humidity;BME280_pressure;Samples;Min_cycle;Max_cycle;Signal;HPM_P1;HPM_P2
2023/08/04 00:00:31;;;;;;;;;;;27.50;99.90;;;;;;5135714;27;19910;-72
2023/08/04 00:02:57;;;;;;;;;;;27.50;99.90;;;;;;5135844;27;19910;-72
2023/08/04 00:05:23;;;;;;;;;;;27.50;99.90;;;;;;5135624;27;19907;-74
2023/08/04 00:07:49;;;;;;;;;;;27.40;99.90;;;;;;5135359;27;19977;-74
2023/08/04 00:10:15;;;;;;;;;;;27.30;99.90;;;;;;5135483;27;19994;-74
2023/08/04 00:12:43;;;;;;;;;;;27.30;99.90;;;;;;5135427;27;19910;-73
2023/08/04 00:15:09;;;;;;;;;;;27.10;99.90;;;;;;5135705;27;20331;-73
2023/08/04 00:17:38;;;;;;;;;;;27.10;99.90;;;;;;5135260;27;19904;-73
2023/08/04 00:20:04;;;;;;;;;;;27.10;99.90;;;;;;5135682;27;20005;-75
2023/08/04 00:22:30;;;;;;;;;;;27.00;99.90;;;;;;5135000;27;19949;-74
2023/08/04 00:24:56;;;;;;;;;;;26.90;99.90;;;;;;5135226;27;19907;-74
2023/08/04 00:27:21;;;;;;;;;;;26.90;99.90;;;;;;5135417;27;19919;-74
2023/08/04 00:29:47;;;;;;;;;;;26.90;99.90;;;;;;5135298;27;19903;-74
2023/08/04 00:32:13;;;;;;;;;;;27.00;99.90;;;;;;5135511;27;19994;-74
2023/08/04 00:34:39;;;;;;;;;;;27.10;99.90;;;;;;5134735;27;19911;-74
2023/08/04 00:37:05;;;;;;;;;;;27.10;99.90;;;;;;5135134;27;19977;-74
2023/08/04 00:39:30;;;;;;;;;;;27.20;99.90;;;;;;5135354;27;19903;-74
2023/08/04 00:41:56;;;;;;;;;;;27.00;99.90;;;;;;5135003;27;19903;-74
2023/08/04 00:44:22;;;;;;;;;;;26.90;99.90;;;;;;5135166;27;20209;-74
2023/08/04 00:46:48;;;;;;;;;;;26.80;99.90;;;;;;5134762;27;19910;-74
2023/08/04 00:49:14;;;;;;;;;;;26.60;99.90;;;;;;5134740;27;19922;-74
2023/08/04 00:51:40;;;;;;;;;;;26.50;99.90;;;;;;5134474;27;20233;-74
2023/08/04 00:54:06;;;;;;;;;;;26.60;99.90;;;;;;5135033;27;20371;-74
2023/08/04 00:56:32;;;;;;;;;;;26.60;99.90;;;;;;5134845;27;20006;-72
2023/08/04 00:58:58;;;;;;;;;;;26.60;99.90;;;;;;5135046;27;19904;-74
2023/08/04 01:01:24;;;;;;;;;;;26.50;99.90;;;;;;5133144;27;19907;-74
2023/08/04 01:03:51;;;;;;;;;;;26.40;99.90;;;;;;5134466;27;19915;-74
2023/08/04 01:06:29;;;;;;;;;;;26.50;99.90;;;;;;5134366;27;19903;-74
2023/08/04 01:09:07;;;;;;;;;;;26.50;99.90;;;;;;5134894;27;19956;-74
2023/08/04 01:11:36;;;;;;;;;;;26.50;99.90;;;;;;5134405;27;19903;-74
2023/08/04 01:14:03;;;;;;;;;;;26.40;99.90;;;;;;5134093;27;19954;-73
2023/08/04 01:16:28;;;;;;;;;;;26.30;99.90;;;;;;5134183;27;19923;-74
2023/08/04 01:19:00;;;;;;;;;;;26.20;99.90;;;;;;5134719;27;19937;-75
2023/08/04 01:21:26;;;;;;;;;;;26.20;99.90;;;;;;5134005;27;19903;-74
2023/08/04 01:23:52;;;;;;;;;;;26.20;99.90;;;;;;5134655;27;19963;-74
2023/08/04 01:26:17;;;;;;;;;;;26.20;99.90;;;;;;5132665;27;20267;-74
2023/08/04 01:28:44;;;;;;;;;;;26.30;99.90;;;;;;5134036;27;19907;-74
2023/08/04 01:31:11;;;;;;;;;;;26.40;99.90;;;;;;5134544;27;19904;-74
2023/08/04 01:33:37;;;;;;;;;;;26.40;99.90;;;;;;5134121;27;19954;-74
2023/08/04 01:36:03;;;;;;;;;;;26.40;99.90;;;;;;5133740;27;20375;-73
2023/08/04 01:38:28;;;;;;;;;;;26.40;99.90;;;;;;5134475;27;19903;-74
2023/08/04 01:40:54;;;;;;;;;;;26.40;99.90;;;;;;5134152;27;19903;-73
2023/08/04 01:43:20;;;;;;;;;;;26.40;99.90;;;;;;5133932;27;20369;-74
2023/08/04 01:45:46;;;;;;;;;;;26.40;99.90;;;;;;5134368;27;19929;-74
2023/08/04 01:48:12;;;;;;;;;;;26.40;99.90;;;;;;5133838;27;19994;-74
2023/08/04 01:50:37;;;;;;;;;;;26.50;99.90;;;;;;5133950;27;19903;-74
2023/08/04 01:53:03;;;;;;;;;;;26.50;99.90;;;;;;5133794;27;19911;-75
2023/08/04 01:55:29;;;;;;;;;;;26.60;99.90;;;;;;5133726;27;19991;-74
2023/08/04 01:57:55;;;;;;;;;;;26.60;99.90;;;;;;5133763;28;19903;-74
2023/08/04 02:00:21;;;;;;;;;;;26.60;99.90;;;;;;5134254;28;19907;-74
2023/08/04 02:02:46;;;;;;;;;;;26.60;99.90;;;;;;5133696;27;19908;-74
2023/08/04 02:05:13;;;;;;;;;;;26.50;99.90;;;;;;5133888;28;20251;-74
2023/08/04 02:07:39;;;;;;;;;;;26.40;99.90;;;;;;5133590;27;19903;-74
2023/08/04 02:10:05;;;;;;;;;;;26.40;99.90;;;;;;5134087;28;20229;-74
2023/08/04 02:12:31;;;;;;;;;;;26.30;99.90;;;;;;5132535;28;20327;-74
2023/08/04 02:14:57;;;;;;;;;;;26.20;99.90;;;;;;5133526;28;19956;-75
2023/08/04 02:17:23;;;;;;;;;;;26.30;99.90;;;;;;5133606;27;19904;-75
2023/08/04 02:19:48;;;;;;;;;;;26.20;99.90;;;;;;5133520;27;19986;-74
2023/08/04 02:22:14;;;;;;;;;;;26.20;99.90;;;;;;5133279;28;20385;-74
2023/08/04 02:24:40;;;;;;;;;;;26.20;99.90;;;;;;5133763;28;19903;-75
2023/08/04 02:27:06;;;;;;;;;;;26.10;99.90;;;;;;5133491;28;19903;-74
2023/08/04 02:29:32;;;;;;;;;;;26.10;99.90;;;;;;5133481;27;20473;-74
2023/08/04 02:31:58;;;;;;;;;;;25.90;99.90;;;;;;5133335;28;19907;-75
2023/08/04 02:34:24;;;;;;;;;;;25.80;99.90;;;;;;5133398;27;20370;-74
2023/08/04 02:36:50;;;;;;;;;;;25.80;99.90;;;;;;5133525;27;19990;-73
2023/08/04 02:39:15;;;;;;;;;;;25.80;99.90;;;;;;5133299;27;19907;-74
2023/08/04 02:41:41;;;;;;;;;;;25.90;99.90;;;;;;5133525;28;19903;-75
2023/08/04 02:44:07;;;;;;;;;;;26.00;99.90;;;;;;5131847;28;19952;-74
2023/08/04 02:46:33;;;;;;;;;;;26.00;99.90;;;;;;5133307;28;19915;-75
2023/08/04 02:48:59;;;;;;;;;;;26.10;99.90;;;;;;5131896;28;19903;-75
2023/08/04 02:51:24;;;;;;;;;;;26.10;99.90;;;;;;5133073;28;19998;-74
2023/08/04 02:53:51;;;;;;;;;;;26.10;99.90;;;;;;5131822;28;19950;-75
2023/08/04 02:56:18;;;;;;;;;;;26.00;99.90;;;;;;5133230;27;19904;-74
2023/08/04 02:58:44;;;;;;;;;;;25.90;99.90;;;;;;5133142;27;19911;-75
2023/08/04 03:01:11;;;;;;;;;;;25.90;99.90;;;;;;5133625;27;19907;-75
2023/08/04 03:03:37;;;;;;;;;;;25.80;99.90;;;;;;5136745;27;19963;-74
2023/08/04 03:06:03;;;;;;;;;;;25.80;99.90;;;;;;5137675;27;19990;-75
2023/08/04 03:08:29;;;;;;;;;;;25.80;99.90;;;;;;5136760;27;19960;-75
2023/08/04 03:10:55;;;;;;;;;;;25.80;99.90;;;;;;5136606;27;19903;-74
2023/08/04 03:13:21;;;;;;;;;;;25.80;99.90;;;;;;5136685;27;20278;-75
2023/08/04 03:15:53;;;;;;;;;;;25.80;99.90;;;;;;5136687;27;19903;-73
2023/08/04 03:18:18;;;;;;;;;;;25.80;99.90;;;;;;5137008;27;19910;-71
2023/08/04 03:20:44;;;;;;;;;;;25.80;99.90;;;;;;5136572;27;19904;-74
2023/08/04 03:23:10;;;;;;;;;;;25.80;99.90;;;;;;5136366;27;19980;-74
2023/08/04 03:25:36;;;;;;;;;;;25.80;99.90;;;;;;5136314;27;19904;-74
2023/08/04 03:28:01;;;;;;;;;;;25.70;99.90;;;;;;5136765;27;19903;-75
2023/08/04 03:30:27;;;;;;;;;;;25.70;99.90;;;;;;5136310;27;19904;-74
2023/08/04 03:32:53;;;;;;;;;;;25.70;99.90;;;;;;5136345;27;20070;-74
2023/08/04 03:35:19;;;;;;;;;;;25.60;99.90;;;;;;5134467;27;19923;-75
2023/08/04 03:37:45;;;;;;;;;;;25.60;99.90;;;;;;5136036;27;20401;-74
2023/08/04 03:40:11;;;;;;;;;;;25.50;99.90;;;;;;5136106;27;20362;-75
2023/08/04 03:42:38;;;;;;;;;;;25.50;99.90;;;;;;5136520;27;19903;-74
2023/08/04 03:45:04;;;;;;;;;;;25.50;99.90;;;;;;5135011;27;20303;-75
2023/08/04 03:47:30;;;;;;;;;;;25.50;99.90;;;;;;5135971;27;20240;-74
2023/08/04 03:49:56;;;;;;;;;;;25.50;99.90;;;;;;5135893;27;20039;-74
2023/08/04 03:52:22;;;;;;;;;;;25.50;99.90;;;;;;5135689;27;19911;-74
2023/08/04 03:54:48;;;;;;;;;;;25.50;99.90;;;;;;5135902;27;20260;-74
2023/08/04 03:57:14;;;;;;;;;;;25.50;99.90;;;;;;5135747;27;19914;-73
2023/08/04 03:59:39;;;;;;;;;;;25.50;99.90;;;;;;5134302;27;19911;-74
2023/08/04 04:02:05;;;;;;;;;;;25.50;99.90;;;;;;5136041;27;19999;-73
2023/08/04 04:04:31;;;;;;;;;;;25.50;99.90;;;;;;5135604;27;19903;-75
2023/08/04 04:06:57;;;;;;;;;;;25.50;99.90;;;;;;5135682;27;19910;-74
2023/08/04 04:09:23;;;;;;;;;;;25.50;99.90;;;;;;5135415;27;19903;-74
2023/08/04 04:11:48;;;;;;;;;;;25.50;99.90;;;;;;5135308;27;19969;-74
2023/08/04 04:14:14;;;;;;;;;;;25.50;99.90;;;;;;5133385;27;19960;-74
2023/08/04 04:16:40;;;;;;;;;;;25.40;99.90;;;;;;5135830;27;19907;-74
2023/08/04 04:19:06;;;;;;;;;;;25.40;99.90;;;;;;5135276;27;19918;-74
2023/08/04 04:21:32;;;;;;;;;;;25.40;99.90;;;;;;5135093;27;19956;-74
2023/08/04 04:23:57;;;;;;;;;;;25.50;99.90;;;;;;5135121;27;19977;-74
2023/08/04 04:26:24;;;;;;;;;;;25.50;99.90;;;;;;5135582;27;19907;-75
2023/08/04 04:28:49;;;;;;;;;;;25.60;99.90;;;;;;5135195;27;19948;-73
2023/08/04 04:31:15;;;;;;;;;;;25.50;99.90;;;;;;5134968;27;19903;-75
2023/08/04 04:33:41;;;;;;;;;;;25.50;99.90;;;;;;5135366;27;19949;-74
2023/08/04 04:36:07;;;;;;;;;;;25.60;99.90;;;;;;5134632;27;19936;-73
2023/08/04 04:38:33;;;;;;;;;;;25.70;99.90;;;;;;5134910;27;19926;-75
2023/08/04 04:41:02;;;;;;;;;;;25.80;99.90;;;;;;5135280;27;19953;-74
2023/08/04 04:43:28;;;;;;;;;;;25.70;99.90;;;;;;5134762;27;19903;-74
2023/08/04 04:45:54;;;;;;;;;;;25.80;99.90;;;;;;5134610;27;19907;-74
2023/08/04 04:48:21;;;;;;;;;;;25.80;99.90;;;;;;5134713;27;20342;-74
2023/08/04 04:50:47;;;;;;;;;;;25.90;99.90;;;;;;5134587;27;20336;-74
2023/08/04 04:53:13;;;;;;;;;;;26.00;99.90;;;;;;5134538;27;19903;-75
2023/08/04 04:55:39;;;;;;;;;;;26.00;99.90;;;;;;5134442;27;19911;-74
2023/08/04 04:58:05;;;;;;;;;;;25.90;99.90;;;;;;5134476;27;19903;-74
2023/08/04 05:00:33;;;;;;;;;;;25.90;99.90;;;;;;5134932;27;19903;-74
2023/08/04 05:02:59;;;;;;;;;;;26.00;99.90;;;;;;5134515;27;19911;-74
2023/08/04 05:05:25;;;;;;;;;;;26.10;99.90;;;;;;5132842;27;19903;-74
2023/08/04 05:07:50;;;;;;;;;;;26.10;99.90;;;;;;5134176;27;19956;-74
2023/08/04 05:10:16;;;;;;;;;;;26.20;99.90;;;;;;5134102;27;19910;-75
2023/08/04 05:12:42;;;;;;;;;;;26.30;99.90;;;;;;5133164;27;19904;-74
2023/08/04 05:15:08;;;;;;;;;;;26.40;99.90;;;;;;5134112;27;20406;-74
2023/08/04 05:17:35;;;;;;;;;;;26.50;99.90;;;;;;5132729;27;19907;-74
2023/08/04 05:20:01;;;;;;;;;;;26.60;99.90;;;;;;5132965;27;19903;-74
2023/08/04 05:22:27;;;;;;;;;;;27.10;99.90;;;;;;5133704;27;19903;-75
2023/08/04 05:24:53;;;;;;;;;;;28.40;99.90;;;;;;5133555;27;19909;-74
2023/08/04 05:27:19;;;;;;;;;;;29.40;99.90;;;;;;5134164;27;20440;-74
2023/08/04 05:29:44;;;;;;;;;;;30.80;99.90;;;;;;5134108;27;19938;-75
2023/08/04 05:32:10;;;;;;;;;;;32.00;99.90;;;;;;5134040;27;19910;-75
2023/08/04 05:34:36;;;;;;;;;;;33.60;99.90;;;;;;5132265;27;19915;-75
2023/08/04 05:37:02;;;;;;;;;;;33.90;99.70;;;;;;5133814;27;19908;-75
2023/08/04 05:39:28;;;;;;;;;;;34.60;98.50;;;;;;5134281;27;19910;-75
2023/08/04 05:41:53;;;;;;;;;;;35.60;96.80;;;;;;5133930;27;19907;-74
2023/08/04 05:44:22;;;;;;;;;;;37.00;95.30;;;;;;5134359;27;20224;-75
2023/08/04 05:46:48;;;;;;;;;;;37.10;94.60;;;;;;5133753;27;19903;-75
2023/08/04 05:49:13;;;;;;;;;;;38.20;93.10;;;;;;5133642;27;19963;-75
2023/08/04 05:51:39;;;;;;;;;;;38.40;91.90;;;;;;5131988;28;19940;-75
2023/08/04 05:54:05;;;;;;;;;;;38.90;91.10;;;;;;5133516;27;19911;-73
2023/08/04 05:56:31;;;;;;;;;;;39.50;90.70;;;;;;5133601;28;20282;-75
2023/08/04 05:58:57;;;;;;;;;;;39.70;89.40;;;;;;5133373;28;19960;-75
2023/08/04 06:01:23;;;;;;;;;;;40.50;87.80;;;;;;5132163;28;20258;-75
2023/08/04 06:03:49;;;;;;;;;;;40.80;86.70;;;;;;5134034;27;20378;-73
2023/08/04 06:06:14;;;;;;;;;;;40.70;84.70;;;;;;5133271;28;19951;-73
2023/08/04 06:08:40;;;;;;;;;;;41.00;83.70;;;;;;5133757;28;19903;-74
2023/08/04 06:11:07;;;;;;;;;;;41.20;83.50;;;;;;5133491;28;19949;-73
2023/08/04 06:13:34;;;;;;;;;;;42.00;84.10;;;;;;5133298;27;19966;-73
2023/08/04 06:16:00;;;;;;;;;;;41.70;84.20;;;;;;5133421;27;20369;-75
2023/08/04 06:18:26;;;;;;;;;;;41.60;85.10;;;;;;5133466;27;20351;-75
2023/08/04 06:20:52;;;;;;;;;;;41.50;91.10;;;;;;5133872;28;19910;-75
2023/08/04 06:23:18;;;;;;;;;;;40.80;91.20;;;;;;5133311;27;19976;-73
2023/08/04 06:25:44;;;;;;;;;;;40.10;93.50;;;;;;5131964;28;19969;-76
2023/08/04 06:28:10;;;;;;;;;;;40.50;93.30;;;;;;5133294;27;19951;-75
2023/08/04 06:30:38;;;;;;;;;;;40.90;93.20;;;;;;5131741;28;19964;-75
2023/08/04 06:33:04;;;;;;;;;;;41.70;93.10;;;;;;5133400;27;19934;-75
2023/08/04 06:35:30;;;;;;;;;;;40.90;92.80;;;;;;5133162;27;19915;-74
2023/08/04 06:37:56;;;;;;;;;;;40.90;93.00;;;;;;5137308;27;20370;-75
2023/08/04 06:40:22;;;;;;;;;;;41.30;92.80;;;;;;5137312;27;19948;-75
2023/08/04 06:42:48;;;;;;;;;;;42.00;92.70;;;;;;5137301;27;19907;-74
2023/08/04 06:45:15;;;;;;;;;;;42.30;92.30;;;;;;5136910;27;19911;-74
2023/08/04 06:47:41;;;;;;;;;;;42.00;92.60;;;;;;5136273;27;19903;-74
2023/08/04 06:50:07;;;;;;;;;;;40.90;93.50;;;;;;5137032;27;20247;-75
2023/08/04 06:52:33;;;;;;;;;;;40.90;93.70;;;;;;5136464;27;19904;-74
2023/08/04 06:54:59;;;;;;;;;;;42.10;93.30;;;;;;5136695;27;19919;-75
2023/08/04 06:57:25;;;;;;;;;;;41.40;93.80;;;;;;5136872;27;19907;-75
2023/08/04 06:59:51;;;;;;;;;;;41.70;93.80;;;;;;5136719;27;19997;-75
2023/08/04 07:02:17;;;;;;;;;;;41.50;94.00;;;;;;5136712;27;19904;-75
2023/08/04 07:04:42;;;;;;;;;;;42.20;93.20;;;;;;5135285;27;19918;-76
2023/08/04 07:07:08;;;;;;;;;;;42.30;92.50;;;;;;5136284;27;20347;-75
2023/08/04 07:09:34;;;;;;;;;;;42.20;91.40;;;;;;5136545;27;20063;-75
2023/08/04 07:12:00;;;;;;;;;;;42.40;91.40;;;;;;5136922;27;19986;-75
2023/08/04 07:14:26;;;;;;;;;;;41.70;91.40;;;;;;5136475;27;20345;-75
2023/08/04 07:16:51;;;;;;;;;;;42.10;91.30;;;;;;5136380;27;19911;-75
2023/08/04 07:19:17;;;;;;;;;;;42.80;91.50;;;;;;5136820;27;19904;-75
2023/08/04 07:21:46;;;;;;;;;;;43.20;91.20;;;;;;5136161;27;19941;-74
2023/08/04 07:24:12;;;;;;;;;;;43.00;91.60;;;;;;5136331;27;19907;-75
2023/08/04 07:26:37;;;;;;;;;;;41.30;91.60;;;;;;5136884;27;19904;-75
2023/08/04 07:29:03;;;;;;;;;;;39.90;93.30;;;;;;5136143;27;19943;-73
2023/08/04 07:31:31;;;;;;;;;;;39.90;92.40;;;;;;5136598;27;19914;-75
2023/08/04 07:33:57;;;;;;;;;;;39.00;91.80;;;;;;5136567;27;19944;-75
2023/08/04 07:36:23;;;;;;;;;;;38.40;92.50;;;;;;5135716;27;20006;-74
2023/08/04 07:38:49;;;;;;;;;;;38.10;92.40;;;;;;5135950;27;19910;-75
2023/08/04 07:41:18;;;;;;;;;;;38.00;93.00;;;;;;5136254;27;19995;-75
2023/08/04 07:43:44;;;;;;;;;;;36.80;93.40;;;;;;5135733;27;19914;-75
2023/08/04 07:46:23;;;;;;;;;;;36.60;94.70;;;;;;5135735;27;19919;-75
2023/08/04 07:48:49;;;;;;;;;;;36.10;94.10;;;;;;5134782;27;20268;-75
2023/08/04 07:51:15;;;;;;;;;;;36.60;94.20;;;;;;5136020;27;19910;-75
2023/08/04 07:53:41;;;;;;;;;;;36.80;93.30;;;;;;5135729;27;19911;-74
2023/08/04 07:56:07;;;;;;;;;;;37.10;93.60;;;;;;5136073;27;19903;-74
2023/08/04 07:58:33;;;;;;;;;;;36.10;94.60;;;;;;5135498;27;20028;-75
2023/08/04 08:00:59;;;;;;;;;;;35.50;95.80;;;;;;5135711;27;20343;-75
2023/08/04 08:03:24;;;;;;;;;;;35.80;95.40;;;;;;5134248;27;19907;-75
2023/08/04 08:05:50;;;;;;;;;;;36.20;93.70;;;;;;5135483;27;20310;-75
2023/08/04 08:08:18;;;;;;;;;;;35.70;94.20;;;;;;5134902;27;20260;-75
2023/08/04 08:10:44;;;;;;;;;;;36.40;94.70;;;;;;5135407;27;19908;-75
2023/08/04 08:13:10;;;;;;;;;;;36.00;95.00;;;;;;5135775;27;19948;-75
2023/08/04 08:15:36;;;;;;;;;;;36.20;94.20;;;;;;5133894;27;20309;-75
2023/08/04 08:18:02;;;;;;;;;;;36.50;94.10;;;;;;5135327;27;19934;-76
2023/08/04 08:20:28;;;;;;;;;;;36.50;93.30;;;;;;5135471;27;19948;-75
2023/08/04 08:22:54;;;;;;;;;;;37.00;92.50;;;;;;5134943;27;20370;-76
2023/08/04 08:25:22;;;;;;;;;;;37.10;92.10;;;;;;5135178;27;19907;-75
2023/08/04 08:27:48;;;;;;;;;;;37.00;91.60;;;;;;5134923;27;20366;-75
2023/08/04 08:30:14;;;;;;;;;;;36.60;91.70;;;;;;5134967;27;19998;-74
2023/08/04 08:32:40;;;;;;;;;;;36.50;92.00;;;;;;5134842;27;20012;-74
2023/08/04 08:35:06;;;;;;;;;;;36.20;91.80;;;;;;5134247;27;19962;-75
2023/08/04 08:37:32;;;;;;;;;;;36.20;91.40;;;;;;5134499;27;19942;-74
2023/08/04 08:39:58;;;;;;;;;;;36.30;91.60;;;;;;5134573;27;19949;-74
2023/08/04 08:42:24;;;;;;;;;;;36.40;91.50;;;;;;5134568;27;19904;-75
2023/08/04 08:44:50;;;;;;;;;;;36.20;91.10;;;;;;5134898;27;19903;-75
2023/08/04 08:47:17;;;;;;;;;;;35.80;91.40;;;;;;5134502;27;19910;-74
2023/08/04 08:49:50;;;;;;;;;;;36.30;91.10;;;;;;5134779;27;20004;-74
2023/08/04 08:52:18;;;;;;;;;;;36.10;90.10;;;;;;5134280;27;19910;-75
2023/08/04 08:54:44;;;;;;;;;;;36.30;90.50;;;;;;5134312;27;19968;-75
2023/08/04 08:57:10;;;;;;;;;;;36.40;90.20;;;;;;5134651;27;19903;-75
2023/08/04 08:59:36;;;;;;;;;;;36.30;90.30;;;;;;5132829;27;20254;-74
2023/08/04 09:02:02;;;;;;;;;;;36.20;90.00;;;;;;5132787;27;20363;-75
2023/08/04 09:04:36;;;;;;;;;;;35.70;90.60;;;;;;5134398;27;19917;-74
2023/08/04 09:07:02;;;;;;;;;;;35.60;91.30;;;;;;5132620;27;19903;-74
2023/08/04 09:09:28;;;;;;;;;;;35.70;90.70;;;;;;5132527;27;20018;-74
2023/08/04 09:11:55;;;;;;;;;;;36.00;90.30;;;;;;5134057;27;19907;-75
2023/08/04 09:14:21;;;;;;;;;;;36.00;90.40;;;;;;5134352;27;19911;-74
2023/08/04 09:16:48;;;;;;;;;;;36.20;90.30;;;;;;5133981;27;19948;-74
2023/08/04 09:19:14;;;;;;;;;;;35.90;90.50;;;;;;5133972;27;19907;-74
2023/08/04 09:21:40;;;;;;;;;;;35.50;90.70;;;;;;5133178;27;19910;-75
2023/08/04 09:24:10;;;;;;;;;;;35.80;91.20;;;;;;5134580;27;20001;-75
2023/08/04 09:26:43;;;;;;;;;;;35.90;91.10;;;;;;5132513;27;19911;-74
2023/08/04 09:29:09;;;;;;;;;;;35.70;91.20;;;;;;5133849;27;20292;-74
2023/08/04 09:31:36;;;;;;;;;;;35.70;90.80;;;;;;5133799;27;19907;-75
2023/08/04 09:34:05;;;;;;;;;;;35.80;90.40;;;;;;5133727;27;19969;-75
2023/08/04 09:36:31;;;;;;;;;;;35.90;90.60;;;;;;5133515;27;19915;-75
2023/08/04 09:39:04;;;;;;;;;;;35.60;90.60;;;;;;5133519;27;19991;-75
2023/08/04 09:41:32;;;;;;;;;;;35.50;90.50;;;;;;5133476;27;19904;-75
2023/08/04 09:44:03;;;;;;;;;;;35.20;90.50;;;;;;5133854;27;19904;-75
2023/08/04 09:46:28;;;;;;;;;;;35.10;90.60;;;;;;5133644;27;19903;-75
2023/08/04 09:48:57;;;;;;;;;;;34.90;90.80;;;;;;5132127;27;19996;-74
2023/08/04 09:51:23;;;;;;;;;;;34.70;90.30;;;;;;5133494;27;19903;-74
2023/08/04 09:53:49;;;;;;;;;;;35.00;89.90;;;;;;5133277;27;20382;-74
2023/08/04 09:56:17;;;;;;;;;;;34.70;89.10;;;;;;5133823;27;19914;-76
2023/08/04 09:58:44;;;;;;;;;;;34.90;89.90;;;;;;5132161;28;19926;-74
2023/08/04 10:01:09;;;;;;;;;;;34.70;89.70;;;;;;5132089;28;19903;-75
2023/08/04 10:03:40;;;;;;;;;;;34.70;89.50;;;;;;5133298;27;19922;-74
2023/08/04 10:06:06;;;;;;;;;;;34.60;89.90;;;;;;5132000;28;19903;-74
2023/08/04 10:08:33;;;;;;;;;;;34.60;89.90;;;;;;5133113;27;19903;-74
2023/08/04 10:10:59;;;;;;;;;;;34.70;90.10;;;;;;5134355;27;20244;-75
2023/08/04 10:13:36;;;;;;;;;;;34.70;90.00;;;;;;5137179;27;19911;-75
2023/08/04 10:16:03;;;;;;;;;;;34.90;90.00;;;;;;5137721;27;20391;-75
2023/08/04 10:18:48;;;;;;;;;;;34.70;90.40;;;;;;5137607;27;19946;-74
2023/08/04 10:21:14;;;;;;;;;;;34.70;89.50;;;;;;5137283;27;19956;-74
2023/08/04 10:23:40;;;;;;;;;;;34.80;89.20;;;;;;5137241;27;20355;-75
2023/08/04 10:26:10;;;;;;;;;;;34.50;90.30;;;;;;5137620;27;19903;-74
2023/08/04 10:28:55;;;;;;;;;;;34.60;90.50;;;;;;5137224;27;19904;-75
2023/08/04 10:31:21;;;;;;;;;;;34.60;90.10;;;;;;5135577;27;19968;-74
2023/08/04 10:34:07;;;;;;;;;;;34.60;90.40;;;;;;5137394;27;20296;-75
2023/08/04 10:36:52;;;;;;;;;;;34.50;90.40;;;;;;5136767;27;20379;-75
2023/08/04 10:39:31;;;;;;;;;;;34.40;90.60;;;;;;5137390;27;19904;-75
2023/08/04 10:41:57;;;;;;;;;;;34.30;90.60;;;;;;5136713;27;19947;-75
2023/08/04 10:44:24;;;;;;;;;;;34.40;91.20;;;;;;5136825;27;19903;-75
2023/08/04 10:46:49;;;;;;;;;;;34.50;91.50;;;;;;5136863;27;20359;-75
2023/08/04 10:49:15;;;;;;;;;;;34.50;91.30;;;;;;5137690;27;20044;-75
2023/08/04 10:51:45;;;;;;;;;;;34.40;91.60;;;;;;5136928;27;19903;-75
2023/08/04 10:54:11;;;;;;;;;;;34.20;91.50;;;;;;5137122;27;19956;-75
2023/08/04 10:56:37;;;;;;;;;;;34.20;91.60;;;;;;5136826;27;19903;-74
2023/08/04 10:59:07;;;;;;;;;;;34.30;91.30;;;;;;5136025;27;19964;-76
2023/08/04 11:01:33;;;;;;;;;;;34.30;91.30;;;;;;5136420;27;19904;-75
2023/08/04 11:03:58;;;;;;;;;;;34.40;91.40;;;;;;5134756;27;19903;-75
2023/08/04 11:06:24;;;;;;;;;;;34.40;91.50;;;;;;5135017;27;20387;-75
2023/08/04 11:08:51;;;;;;;;;;;34.00;91.40;;;;;;5136255;27;19953;-75
2023/08/04 11:11:17;;;;;;;;;;;33.80;91.20;;;;;;5136319;27;19907;-75
2023/08/04 11:13:43;;;;;;;;;;;34.00;91.40;;;;;;5136138;27;19949;-75
2023/08/04 11:16:09;;;;;;;;;;;34.30;91.30;;;;;;5136613;27;19998;-75
2023/08/04 11:18:35;;;;;;;;;;;34.30;91.10;;;;;;5134783;27;20448;-75
2023/08/04 11:21:01;;;;;;;;;;;34.50;90.50;;;;;;5136043;27;19903;-73
2023/08/04 11:23:28;;;;;;;;;;;34.40;90.70;;;;;;5133204;27;19904;-76
2023/08/04 11:25:55;;;;;;;;;;;34.40;91.10;;;;;;5135785;27;20266;-75
2023/08/04 11:28:21;;;;;;;;;;;34.60;90.50;;;;;;5136336;27;19903;-75
2023/08/04 11:30:47;;;;;;;;;;;34.50;91.20;;;;;;5136275;27;19911;-75
2023/08/04 11:33:14;;;;;;;;;;;34.40;88.70;;;;;;5136081;27;19904;-76
2023/08/04 11:35:39;;;;;;;;;;;34.60;90.90;;;;;;5135834;27;19916;-75
2023/08/04 11:38:05;;;;;;;;;;;34.60;88.70;;;;;;5135904;27;19918;-74
2023/08/04 11:40:31;;;;;;;;;;;34.40;88.70;;;;;;5135872;27;20378;-75
2023/08/04 11:42:59;;;;;;;;;;;34.30;88.30;;;;;;5135903;27;19904;-75
2023/08/04 11:45:25;;;;;;;;;;;34.50;87.30;;;;;;5136077;27;20050;-75
2023/08/04 11:47:54;;;;;;;;;;;34.60;87.50;;;;;;5135635;27;19924;-76
2023/08/04 11:50:19;;;;;;;;;;;34.80;88.50;;;;;;5135985;27;19903;-75
2023/08/04 11:52:46;;;;;;;;;;;34.50;88.50;;;;;;5135363;27;19929;-75
2023/08/04 11:55:12;;;;;;;;;;;34.50;87.80;;;;;;5135369;27;19956;-75
2023/08/04 11:57:58;;;;;;;;;;;34.70;86.50;;;;;;5135681;27;19907;-75
2023/08/04 12:00:33;;;;;;;;;;;34.80;85.70;;;;;;5134997;27;19949;-75
2023/08/04 12:03:01;;;;;;;;;;;34.80;86.70;;;;;;5135363;27;20002;-75
2023/08/04 12:05:30;;;;;;;;;;;34.90;86.80;;;;;;5135544;27;19914;-75
2023/08/04 12:07:57;;;;;;;;;;;35.00;85.20;;;;;;5135139;27;19903;-75
2023/08/04 12:10:23;;;;;;;;;;;34.90;85.50;;;;;;5135142;27;19939;-75
2023/08/04 12:12:50;;;;;;;;;;;34.80;85.40;;;;;;5135091;27;19911;-75
2023/08/04 12:15:16;;;;;;;;;;;34.90;85.20;;;;;;5133715;27;19922;-75
2023/08/04 12:17:42;;;;;;;;;;;35.00;85.20;;;;;;5133541;27;19903;-75
2023/08/04 12:20:09;;;;;;;;;;;34.90;84.40;;;;;;5134914;27;19903;-75
2023/08/04 12:22:35;;;;;;;;;;;35.00;84.80;;;;;;5134759;27;19911;-76
2023/08/04 12:25:03;;;;;;;;;;;35.00;86.80;;;;;;5135276;27;19955;-75
2023/08/04 12:27:30;;;;;;;;;;;35.00;87.00;;;;;;5134795;27;20374;-75
2023/08/04 12:29:55;;;;;;;;;;;34.80;85.20;;;;;;5135011;27;19953;-75
2023/08/04 12:32:21;;;;;;;;;;;34.70;82.80;;;;;;5134828;27;19903;-76
2023/08/04 12:34:47;;;;;;;;;;;34.80;82.20;;;;;;5134251;27;20045;-75
2023/08/04 12:37:13;;;;;;;;;;;34.80;82.00;;;;;;5133318;27;19915;-75
2023/08/04 12:39:39;;;;;;;;;;;34.90;82.90;;;;;;5134688;27;19964;-75
2023/08/04 12:42:05;;;;;;;;;;;35.20;83.30;;;;;;5134645;27;19903;-75
2023/08/04 12:44:30;;;;;;;;;;;35.30;83.60;;;;;;5134574;27;19903;-75
2023/08/04 12:46:56;;;;;;;;;;;35.10;84.20;;;;;;5135390;27;19911;-75
2023/08/04 12:49:22;;;;;;;;;;;35.00;83.40;;;;;;5135435;27;19910;-75
2023/08/04 12:51:48;;;;;;;;;;;34.80;80.80;;;;;;5135087;27;20301;-75
2023/08/04 12:54:14;;;;;;;;;;;35.00;82.50;;;;;;5134212;27;19972;-75
2023/08/04 12:56:40;;;;;;;;;;;35.20;82.90;;;;;;5115994;27;20406;-75
2023/08/04 12:59:06;;;;;;;;;;;35.20;84.10;;;;;;5134546;27;19903;-75
2023/08/04 13:01:32;;;;;;;;;;;34.90;83.20;;;;;;5134299;27;20367;-74
2023/08/04 13:03:58;;;;;;;;;;;34.80;81.90;;;;;;5134265;27;19903;-75
2023/08/04 13:06:23;;;;;;;;;;;34.40;80.20;;;;;;5134448;27;20230;-75
2023/08/04 13:08:49;;;;;;;;;;;34.60;81.00;;;;;;5133997;27;19911;-75
2023/08/04 13:11:15;;;;;;;;;;;34.70;78.90;;;;;;5132674;27;20263;-75
2023/08/04 13:13:41;;;;;;;;;;;34.70;81.30;;;;;;5134079;27;19904;-75
2023/08/04 13:16:09;;;;;;;;;;;34.90;81.50;;;;;;5134356;27;19933;-75
2023/08/04 13:18:35;;;;;;;;;;;35.10;81.40;;;;;;5133935;27;19909;-76
2023/08/04 13:21:04;;;;;;;;;;;35.30;81.30;;;;;;5133859;27;19998;-75
2023/08/04 13:23:32;;;;;;;;;;;35.10;80.30;;;;;;5133777;27;19915;-75
2023/08/04 13:26:04;;;;;;;;;;;35.20;78.90;;;;;;5133761;27;19904;-75
2023/08/04 13:28:31;;;;;;;;;;;35.30;79.60;;;;;;5133921;27;19904;-75
2023/08/04 13:30:59;;;;;;;;;;;35.30;80.00;;;;;;5133704;27;19903;-75
2023/08/04 13:33:28;;;;;;;;;;;35.10;79.10;;;;;;5133695;27;19933;-75
2023/08/04 13:35:54;;;;;;;;;;;35.10;79.50;;;;;;5133641;27;19943;-75
2023/08/04 13:38:19;;;;;;;;;;;35.00;78.40;;;;;;5133667;27;19903;-75
2023/08/04 13:40:45;;;;;;;;;;;35.10;79.40;;;;;;5134024;27;19908;-74
2023/08/04 13:43:13;;;;;;;;;;;34.80;81.50;;;;;;5133495;27;19903;-75
2023/08/04 13:45:38;;;;;;;;;;;35.00;81.70;;;;;;5131509;27;19994;-75
2023/08/04 13:48:05;;;;;;;;;;;34.90;81.30;;;;;;5132236;27;20346;-75
2023/08/04 13:50:31;;;;;;;;;;;35.00;81.60;;;;;;5133467;27;20275;-75
2023/08/04 13:52:57;;;;;;;;;;;34.70;83.10;;;;;;5133384;27;19904;-75
2023/08/04 13:55:23;;;;;;;;;;;34.70;83.20;;;;;;5133843;28;20059;-75
2023/08/04 13:57:48;;;;;;;;;;;34.60;85.10;;;;;;5133402;28;19904;-75
2023/08/04 14:00:14;;;;;;;;;;;34.60;85.50;;;;;;5133469;27;19903;-75
2023/08/04 14:02:40;;;;;;;;;;;34.60;84.80;;;;;;5133689;27;19912;-75
2023/08/04 14:05:06;;;;;;;;;;;34.60;84.00;;;;;;5133908;27;19907;-75
2023/08/04 14:07:32;;;;;;;;;;;34.50;87.60;;;;;;5133197;27;20360;-75
2023/08/04 14:09:58;;;;;;;;;;;34.30;87.30;;;;;;5133640;27;19919;-75
2023/08/04 14:12:24;;;;;;;;;;;34.30;90.00;;;;;;5131900;28;19998;-75